Cygnet, Ohio
Current Conditions -  °F | °C
As of 4:14 AM on Wednesday 22 Oct 2014 (Local Time) from KFDY Reporting Station
Overcast Overcast  
Wind Chill: 39°   Ceiling: 1400
Heat Index: 44°   Visibility: 8mi
Dew Point: 39°   Wind: 9mph
Humidity: 82%   Direction: 340°NNW
Pressure: 30.2"   Gusts: NA
Location:  41.24°N, 83.64°W
Report Text: KFDY 220814Z AUTO 34008KT 8SM OVC014 07/04 A3020 RMK AO2 T00670039
Loading
Personal Weather Stations






























Interactive Weather Map
Tropical Storm Tracking
New forecast layout! Learn more

10-Day Weather Forecast

Advertisements
Track Severe Weather on mobile